Terminal Aerodrome Forecast
Issued by NWS Quad Cities IA IL

Home | Current Version | Previous Version | Text Only | Print | Product List | Glossary On
Versions: 1 2 3 4 5 6 7 8 9 10 11 12 13 14 15 16 17 18 19 20 21
436
FTUS43 KDVN 290520
TAFDBQ
TAF
KDBQ 290520Z 2906/3006 22012G25KT P6SM VCSH SCT080
     FM291400 25010KT P6SM SCT040
     FM291900 22014KT P6SM OVC120 PROB30 2920/3002 2SM +TSRA
      OVC035CB=

USA.gov is the U.S. government's official web portal to all federal, state and local government web resources and services.